createdAt,value
2024-03-22T00:04:27.683Z,99068.26
2024-03-22T00:09:29.580Z,99061.77
2024-03-22T00:14:32.304Z,99057.83
2024-03-22T00:19:35.987Z,99056.73
2024-03-22T00:24:37.744Z,99056.21
2024-03-22T00:29:39.621Z,99057.30
2024-03-22T00:34:41.378Z,99057.70
2024-03-22T00:39:43.083Z,99057.33
2024-03-22T00:44:44.760Z,99054.45
2024-03-22T00:49:46.544Z,99054.25
2024-03-22T00:54:48.374Z,99052.59
2024-03-22T00:59:50.091Z,99049.15
2024-03-22T01:04:51.851Z,99049.74
2024-03-22T01:09:53.594Z,99056.64
2024-03-22T01:14:55.551Z,99052.49
2024-03-22T01:19:57.321Z,99055.39
2024-03-22T01:24:58.963Z,99058.93
2024-03-22T01:30:00.739Z,99057.52
2024-03-22T01:35:02.435Z,99059.19
2024-03-22T01:40:08.222Z,99053.77
2024-03-22T01:45:10.004Z,99055.63
2024-03-22T01:50:12.994Z,99053.86
2024-03-22T01:55:14.923Z,99055.15
2024-03-22T02:00:17.099Z,99053.45
2024-03-22T02:05:22.719Z,99052.77
2024-03-22T02:10:24.506Z,99053.92
2024-03-22T02:15:26.283Z,99053.02
2024-03-22T02:20:27.973Z,99052.50
2024-03-22T02:25:29.690Z,99057.92
2024-03-22T02:30:31.423Z,99054.99
2024-03-22T02:35:33.216Z,99055.89
2024-03-22T02:40:34.952Z,99051.59
2024-03-22T02:45:36.894Z,99052.79
2024-03-22T02:50:39.253Z,99053.86
2024-03-22T02:55:41.482Z,99054.40
2024-03-22T03:00:43.783Z,99048.93
2024-03-22T03:05:45.658Z,99044.96
2024-03-22T03:10:47.481Z,99044.09
2024-03-22T03:15:49.279Z,99047.49
2024-03-22T03:20:51.197Z,99039.93
2024-03-22T03:25:52.891Z,99036.83
2024-03-22T03:30:54.539Z,99035.16
2024-03-22T03:35:56.293Z,99034.70
2024-03-22T03:40:58.040Z,99038.91
2024-03-22T03:45:59.832Z,99032.91
2024-03-22T03:51:04.164Z,99033.74
2024-03-22T03:56:05.925Z,99032.37
2024-03-22T04:01:09.016Z,99029.08
2024-03-22T04:06:10.794Z,99026.85
2024-03-22T04:11:12.986Z,99023.94
2024-03-22T04:16:15.088Z,99025.54
2024-03-22T04:21:16.880Z,99013.16
2024-03-22T04:26:18.550Z,99000.52
2024-03-22T04:31:20.261Z,99013.04
2024-03-22T04:36:22.056Z,99016.09
2024-03-22T04:41:23.787Z,99024.52
2024-03-22T04:46:25.565Z,99021.86
2024-03-22T04:51:27.352Z,99035.05
2024-03-22T04:56:29.078Z,99037.54
2024-03-22T05:01:30.727Z,99037.98
2024-03-22T05:06:32.499Z,99051.21
2024-03-22T05:11:34.202Z,99056.67
2024-03-22T05:16:36.454Z,99058.81
2024-03-22T05:21:38.146Z,99056.09
2024-03-22T05:26:40.172Z,99062.61
2024-03-22T05:31:50.152Z,99058.95
2024-03-22T05:36:51.917Z,99054.73
2024-03-22T05:41:55.103Z,99054.38
2024-03-22T05:46:56.931Z,99052.90
2024-03-22T05:51:59.390Z,99050.14
2024-03-22T05:57:01.766Z,99050.59
2024-03-22T06:02:03.491Z,99046.27
2024-03-22T06:07:05.737Z,99039.98
2024-03-22T06:12:07.719Z,99037.39
2024-03-22T06:17:09.779Z,99033.04
2024-03-22T06:22:11.478Z,99037.29
2024-03-22T06:27:14.694Z,99042.91
2024-03-22T06:32:16.537Z,99047.21
2024-03-22T06:37:18.217Z,99043.40
2024-03-22T06:42:19.977Z,99042.55
2024-03-22T06:47:22.831Z,99046.45
2024-03-22T06:52:24.813Z,99046.97
2024-03-22T06:57:26.555Z,99042.25
2024-03-22T07:02:28.318Z,99041.65
2024-03-22T07:07:30.025Z,99042.48
2024-03-22T07:12:31.776Z,99035.05
2024-03-22T07:17:33.534Z,99037.23
2024-03-22T07:22:35.163Z,99036.77
2024-03-22T07:27:37.507Z,99036.73
2024-03-22T07:32:39.374Z,99040.55
2024-03-22T07:37:41.239Z,99034.88
2024-03-22T07:42:42.997Z,99031.34
2024-03-22T07:47:44.898Z,99031.40
2024-03-22T07:52:46.579Z,99026.69
2024-03-22T07:57:48.345Z,99025.57
2024-03-22T08:02:50.209Z,99022.77
2024-03-22T08:07:51.960Z,99015.35
2024-03-22T08:12:54.007Z,99017.98
2024-03-22T08:17:58.728Z,99009.95
2024-03-22T08:23:00.857Z,99009.06
2024-03-22T08:28:07.526Z,99013.45
2024-03-22T08:33:14.472Z,99020.21
2024-03-22T08:38:18.493Z,99025.92
2024-03-22T08:43:23.092Z,99016.84
2024-03-22T08:48:24.806Z,99017.54
2024-03-22T08:53:26.501Z,99023.42
2024-03-22T08:58:29.233Z,99023.92
2024-03-22T09:03:31.802Z,99019.50
2024-03-22T09:08:35.287Z,99015.73
2024-03-22T09:13:37.056Z,99012.72
2024-03-22T09:18:38.721Z,99008.84
2024-03-22T09:23:40.501Z,99001.85
2024-03-22T09:28:43.404Z,98999.63
2024-03-22T09:33:46.351Z,98987.46
2024-03-22T09:38:48.177Z,98980.91
2024-03-22T09:43:51.265Z,98973.42
2024-03-22T09:48:54.888Z,98971.67
2024-03-22T09:53:56.831Z,98967.46
2024-03-22T09:58:59.406Z,98967.52
2024-03-22T10:04:02.688Z,98959.27
2024-03-22T10:09:06.551Z,98959.77
2024-03-22T10:14:13.012Z,98950.11
2024-03-22T10:19:17.569Z,98941.05
2024-03-22T10:24:19.828Z,98940.54
2024-03-22T10:29:23.261Z,98939.55
2024-03-22T10:34:26.016Z,98939.10
2024-03-22T10:39:28.238Z,98933.20
2024-03-22T10:44:30.052Z,98921.00
2024-03-22T10:49:37.864Z,98912.59
2024-03-22T10:54:45.694Z,98910.71
2024-03-22T10:59:47.931Z,98907.80
2024-03-22T11:04:58.981Z,98900.79
2024-03-22T11:10:07.555Z,98891.71
2024-03-22T11:15:11.755Z,98890.69
2024-03-22T11:20:13.509Z,98884.05
2024-03-22T11:25:15.105Z,98876.98
2024-03-22T11:30:17.307Z,98874.29
2024-03-22T11:35:19.179Z,98868.80
2024-03-22T11:40:20.978Z,98858.47
2024-03-22T11:45:24.060Z,98852.36
2024-03-22T11:50:25.871Z,98850.06
2024-03-22T11:55:31.543Z,98845.48
2024-03-22T12:05:38.783Z,98835.70
2024-03-22T12:10:40.565Z,98832.07
2024-03-22T12:15:42.948Z,98832.22
2024-03-22T12:20:46.678Z,98823.08
2024-03-22T12:25:48.556Z,98822.91
2024-03-22T12:30:53.413Z,98813.95
2024-03-22T12:35:55.212Z,98803.74
2024-03-22T12:40:57.484Z,98788.71
2024-03-22T12:45:59.381Z,98776.63
2024-03-22T12:51:01.432Z,98771.80
2024-03-22T12:56:07.339Z,98766.77
2024-03-22T13:01:11.865Z,98760.73
2024-03-22T13:06:13.682Z,98749.24
2024-03-22T13:11:15.396Z,98740.76
2024-03-22T13:16:17.368Z,98736.55
2024-03-22T13:21:19.234Z,98732.45
2024-03-22T13:26:20.946Z,98731.49
2024-03-22T13:31:24.073Z,98725.79
2024-03-22T13:36:27.533Z,98722.31
2024-03-22T13:41:29.736Z,98717.33
2024-03-22T13:46:31.801Z,98709.08
2024-03-22T13:51:33.484Z,98702.68
2024-03-22T13:56:35.325Z,98695.83
2024-03-22T14:01:37.899Z,98688.27
2024-03-22T14:06:39.751Z,98688.24
2024-03-22T14:11:42.767Z,98685.35
2024-03-22T14:16:44.503Z,98681.36
2024-03-22T14:21:50.066Z,98681.09
2024-03-22T14:26:51.818Z,98676.65
2024-03-22T14:31:53.841Z,98670.75
2024-03-22T14:36:55.629Z,98668.19
2024-03-22T14:41:57.435Z,98655.32
2024-03-22T14:46:59.749Z,98656.27
2024-03-22T14:52:01.514Z,98644.64
2024-03-22T14:57:03.449Z,98636.52
2024-03-22T15:02:05.477Z,98636.08
2024-03-22T15:07:07.181Z,98623.58
2024-03-22T15:12:10.558Z,98620.55
2024-03-22T15:17:12.952Z,98610.40
2024-03-22T15:22:17.084Z,98609.83
2024-03-22T15:27:18.800Z,98607.36
2024-03-22T15:32:21.051Z,98604.36
2024-03-22T15:37:22.760Z,98598.89
2024-03-22T15:42:24.517Z,98592.69
2024-03-22T15:47:26.212Z,98591.80
2024-03-22T15:52:28.070Z,98592.06
2024-03-22T15:57:30.013Z,98588.06
2024-03-22T16:02:31.699Z,98590.55
2024-03-22T16:07:33.498Z,98588.59
2024-03-22T16:12:35.377Z,98588.52
2024-03-22T16:17:37.063Z,98590.09
2024-03-22T16:22:39.913Z,98585.96
2024-03-22T16:27:41.664Z,98583.20
2024-03-22T16:32:43.354Z,98580.05
2024-03-22T16:37:45.139Z,98575.56
2024-03-22T16:42:48.652Z,98564.57
2024-03-22T16:47:51.932Z,98551.82
2024-03-22T16:52:53.779Z,98549.63
2024-03-22T16:57:55.656Z,98547.95
2024-03-22T17:02:57.518Z,98554.88
2024-03-22T17:07:59.268Z,98562.81
2024-03-22T17:13:01.036Z,98562.60
2024-03-22T17:18:03.110Z,98564.80
2024-03-22T17:23:05.003Z,98565.33
2024-03-22T17:28:08.117Z,98563.88
2024-03-22T17:33:10.229Z,98565.10
2024-03-22T17:38:12.118Z,98564.31
2024-03-22T17:43:15.262Z,98559.61
2024-03-22T17:48:17.040Z,98556.98
2024-03-22T17:53:19.622Z,98554.29
2024-03-22T17:58:21.462Z,98542.66
2024-03-22T18:03:23.243Z,98535.52
2024-03-22T18:08:25.558Z,98529.63
2024-03-22T18:13:28.717Z,98518.25
2024-03-22T18:18:30.586Z,98521.58
2024-03-22T18:23:34.544Z,98517.39
2024-03-22T18:28:36.355Z,98511.91
2024-03-22T18:33:38.901Z,98498.74
2024-03-22T18:38:40.714Z,98491.08
2024-03-22T18:43:42.533Z,98487.10
2024-03-22T18:48:44.972Z,98481.71
2024-03-22T18:53:47.418Z,98480.92
2024-03-22T18:58:49.350Z,98479.83
2024-03-22T19:03:51.337Z,98477.67
2024-03-22T19:08:53.060Z,98475.30
2024-03-22T19:13:55.194Z,98465.31
2024-03-22T19:18:56.850Z,98460.18
2024-03-22T19:23:58.535Z,98459.98
2024-03-22T19:29:02.523Z,98453.39
2024-03-22T19:34:06.875Z,98454.58
2024-03-22T19:39:10.173Z,98443.94
2024-03-22T19:44:14.026Z,98438.61
2024-03-22T19:49:18.232Z,98440.77
2024-03-22T19:54:23.903Z,98434.52
2024-03-22T19:59:25.720Z,98429.27
2024-03-22T20:04:27.394Z,98425.02
2024-03-22T20:09:29.125Z,98423.97
2024-03-22T20:14:30.913Z,98416.25
2024-03-22T20:19:32.648Z,98412.12
2024-03-22T20:24:34.331Z,98408.98
2024-03-22T20:29:36.532Z,98401.55
2024-03-22T20:34:38.254Z,98397.89
2024-03-22T20:39:40.320Z,98399.64
2024-03-22T20:44:41.991Z,98396.10
2024-03-22T20:49:45.071Z,98400.01
2024-03-22T20:54:46.866Z,98395.00
2024-03-22T20:59:48.691Z,98390.83
2024-03-22T21:04:52.984Z,98384.94
2024-03-22T21:09:56.009Z,98387.02
2024-03-22T21:14:58.340Z,98386.06
2024-03-22T21:20:00.715Z,98380.02
2024-03-22T21:25:03.093Z,98367.02
2024-03-22T21:30:04.768Z,98363.55
2024-03-22T21:35:06.942Z,98355.39
2024-03-22T21:40:08.803Z,98349.87
2024-03-22T21:45:10.666Z,98342.88
2024-03-22T21:50:12.380Z,98340.52
2024-03-22T21:55:14.171Z,98334.36
2024-03-22T22:00:16.080Z,98331.02
2024-03-22T22:05:17.876Z,98324.77
2024-03-22T22:10:19.569Z,98321.59
2024-03-22T22:15:24.072Z,98321.36
2024-03-22T22:20:25.812Z,98318.63
2024-03-22T22:25:27.476Z,98311.80
2024-03-22T22:30:29.575Z,98307.66
2024-03-22T22:35:31.308Z,98301.02
2024-03-22T22:40:33.170Z,98297.86
2024-03-22T22:45:34.897Z,98289.83
2024-03-22T22:50:38.803Z,98288.64
2024-03-22T22:55:40.589Z,98285.10
2024-03-22T23:00:42.345Z,98281.35
2024-03-22T23:05:44.111Z,98279.52
2024-03-22T23:10:45.899Z,98279.73
2024-03-22T23:15:47.760Z,98274.73
2024-03-22T23:20:50.532Z,98271.86
2024-03-22T23:25:52.285Z,98266.25
2024-03-22T23:30:54.439Z,98265.23
2024-03-22T23:35:56.536Z,98251.05
2024-03-22T23:40:58.345Z,98249.35
2024-03-22T23:46:00.058Z,98240.56
2024-03-22T23:51:01.731Z,98236.58
2024-03-22T23:56:03.412Z,98229.38
